createdAt,value
2022-08-28T00:00:50.006Z,18.5
2022-08-28T00:02:50.312Z,18.5
2022-08-28T00:04:50.401Z,18.5
2022-08-28T00:06:50.098Z,18.5
2022-08-28T00:08:50.300Z,18.4
2022-08-28T00:10:50.441Z,18.4
2022-08-28T00:12:50.498Z,18.4
2022-08-28T00:14:50.579Z,18.4
2022-08-28T00:16:50.126Z,18.4
2022-08-28T00:18:50.110Z,18.4
2022-08-28T00:20:49.978Z,18.3
2022-08-28T00:22:50.802Z,18.3
2022-08-28T00:24:50.099Z,18.3
2022-08-28T00:26:49.996Z,18.3
2022-08-28T00:28:50.080Z,18.3
2022-08-28T00:30:51.025Z,18.3
2022-08-28T00:32:50.230Z,18.3
2022-08-28T00:34:50.783Z,18.2
2022-08-28T00:36:52.849Z,18.2
2022-08-28T00:38:49.948Z,18.2
2022-08-28T00:40:50.328Z,18.2
2022-08-28T00:42:50.351Z,18.2
2022-08-28T00:44:50.163Z,18.2
2022-08-28T00:46:50.608Z,18.2
2022-08-28T00:48:50.820Z,18.1
2022-08-28T00:50:50.605Z,18.1
2022-08-28T00:52:50.559Z,18.1
2022-08-28T00:55:00.243Z,18.1
2022-08-28T00:56:50.407Z,18.1
2022-08-28T00:58:50.408Z,18.1
2022-08-28T01:00:50.254Z,18.1
2022-08-28T01:02:50.563Z,18.0
2022-08-28T01:04:50.128Z,18.0
2022-08-28T01:06:50.266Z,18.0
2022-08-28T01:08:51.463Z,18.0
2022-08-28T01:10:49.953Z,18.0
2022-08-28T01:12:49.999Z,18.0
2022-08-28T01:14:50.111Z,18.0
2022-08-28T01:16:50.350Z,18.0
2022-08-28T01:18:50.271Z,18.0
2022-08-28T01:20:50.089Z,18.0
2022-08-28T01:22:50.875Z,18.0
2022-08-28T01:24:51.241Z,18.0
2022-08-28T01:26:50.648Z,18.0
2022-08-28T01:28:50.627Z,17.9
2022-08-28T01:30:50.729Z,18.0
2022-08-28T01:32:50.776Z,17.9
2022-08-28T01:34:49.943Z,17.9
2022-08-28T01:36:50.122Z,17.9
2022-08-28T01:38:49.966Z,17.9
2022-08-28T01:40:50.801Z,17.9
2022-08-28T01:42:50.704Z,17.9
2022-08-28T01:44:50.608Z,17.9
2022-08-28T01:46:50.896Z,17.9
2022-08-28T01:48:50.096Z,17.8
2022-08-28T01:50:50.898Z,17.8
2022-08-28T01:52:50.880Z,17.8
2022-08-28T01:54:53.517Z,17.8
2022-08-28T01:56:50.058Z,17.8
2022-08-28T01:58:49.989Z,17.8
2022-08-28T02:00:49.988Z,17.8
2022-08-28T02:02:50.846Z,17.7
2022-08-28T02:04:50.388Z,17.7
2022-08-28T02:06:50.777Z,17.7
2022-08-28T02:08:50.216Z,17.7
2022-08-28T02:10:50.098Z,17.7
2022-08-28T02:12:49.945Z,17.7
2022-08-28T02:14:50.220Z,17.7
2022-08-28T02:16:50.557Z,17.7
2022-08-28T02:18:50.497Z,17.7
2022-08-28T02:20:50.484Z,17.6
2022-08-28T02:22:49.982Z,17.6
2022-08-28T02:24:49.905Z,17.6
2022-08-28T02:26:50.138Z,17.6
2022-08-28T02:28:50.265Z,17.6
2022-08-28T02:30:50.263Z,17.6
2022-08-28T02:32:50.672Z,17.6
2022-08-28T02:34:50.003Z,17.6
2022-08-28T02:36:50.360Z,17.6
2022-08-28T02:38:58.193Z,17.6
2022-08-28T02:40:50.504Z,17.6
2022-08-28T02:42:50.397Z,17.6
2022-08-28T02:44:50.411Z,17.6
2022-08-28T02:46:50.618Z,17.6
2022-08-28T02:48:50.422Z,17.6
2022-08-28T02:50:50.246Z,17.6
2022-08-28T02:52:50.126Z,17.6
2022-08-28T02:54:50.040Z,17.6
2022-08-28T02:56:50.205Z,17.5
2022-08-28T02:58:50.424Z,17.5
2022-08-28T03:00:50.431Z,17.5
2022-08-28T03:02:50.830Z,17.5
2022-08-28T03:04:52.139Z,17.5
2022-08-28T03:06:50.306Z,17.5
2022-08-28T03:08:50.108Z,17.5
2022-08-28T03:10:50.840Z,17.5
2022-08-28T03:12:50.360Z,17.5
2022-08-28T03:14:50.303Z,17.5
2022-08-28T03:16:51.106Z,17.5
2022-08-28T03:18:50.163Z,17.4
2022-08-28T03:20:50.507Z,17.4
2022-08-28T03:22:50.548Z,17.4
2022-08-28T03:24:50.674Z,17.4
2022-08-28T03:26:50.766Z,17.4
2022-08-28T03:28:50.896Z,17.4
2022-08-28T03:30:51.165Z,17.4
2022-08-28T03:32:50.120Z,17.4
2022-08-28T03:34:51.689Z,17.4
2022-08-28T03:36:50.050Z,17.4
2022-08-28T03:38:49.898Z,17.4
2022-08-28T03:40:50.753Z,17.4
2022-08-28T03:42:54.116Z,17.4
2022-08-28T03:44:50.011Z,17.4
2022-08-28T03:46:51.849Z,17.4
2022-08-28T03:48:51.359Z,17.4
2022-08-28T03:50:52.695Z,17.4
2022-08-28T03:52:50.185Z,17.4
2022-08-28T03:54:50.206Z,17.4
2022-08-28T03:56:50.407Z,17.4
2022-08-28T03:58:50.397Z,17.4
2022-08-28T04:00:50.753Z,17.4
2022-08-28T04:02:50.859Z,17.4
2022-08-28T04:04:50.277Z,17.5
2022-08-28T04:06:50.447Z,17.5
2022-08-28T04:08:50.621Z,17.5
2022-08-28T04:10:50.396Z,17.5
2022-08-28T04:12:50.401Z,17.5
2022-08-28T04:14:50.412Z,17.5
2022-08-28T04:16:51.089Z,17.5
2022-08-28T04:18:50.000Z,17.5
2022-08-28T04:20:49.967Z,17.5
2022-08-28T04:22:55.659Z,17.5
2022-08-28T04:24:50.441Z,17.5
2022-08-28T04:26:50.118Z,17.5
2022-08-28T04:28:56.360Z,17.5
2022-08-28T04:30:50.483Z,17.5
2022-08-28T04:32:50.339Z,17.5
2022-08-28T04:34:50.924Z,17.5
2022-08-28T04:36:50.231Z,17.5
2022-08-28T04:38:50.295Z,17.5
2022-08-28T04:40:50.128Z,17.5
2022-08-28T04:42:50.220Z,17.5
2022-08-28T04:44:50.308Z,17.5
2022-08-28T04:46:50.464Z,17.5
2022-08-28T04:48:50.381Z,17.5
2022-08-28T04:50:50.456Z,17.5
2022-08-28T04:52:50.626Z,17.5
2022-08-28T04:54:50.764Z,17.5
2022-08-28T04:56:50.046Z,17.5
2022-08-28T04:58:50.116Z,17.5
2022-08-28T05:00:50.439Z,17.5
2022-08-28T05:02:50.418Z,17.5
2022-08-28T05:04:50.868Z,17.5
2022-08-28T05:06:50.011Z,17.5
2022-08-28T05:08:50.023Z,17.5
2022-08-28T05:10:50.108Z,17.5
2022-08-28T05:12:50.045Z,17.5
2022-08-28T05:14:50.105Z,17.5
2022-08-28T05:16:50.365Z,17.5
2022-08-28T05:18:50.439Z,17.5
2022-08-28T05:20:50.421Z,17.6
2022-08-28T05:22:50.357Z,17.5
2022-08-28T05:24:50.166Z,17.5
2022-08-28T05:26:50.761Z,17.5
2022-08-28T05:28:50.909Z,17.5
2022-08-28T05:30:50.812Z,17.6
2022-08-28T05:32:50.700Z,17.6
2022-08-28T05:34:49.930Z,17.6
2022-08-28T05:36:50.309Z,17.6
2022-08-28T05:38:54.738Z,17.6
2022-08-28T05:40:50.837Z,17.6
2022-08-28T05:42:50.728Z,17.6
2022-08-28T05:44:55.125Z,17.7
2022-08-28T05:46:50.318Z,17.6
2022-08-28T05:48:50.213Z,17.6
2022-08-28T05:50:50.086Z,17.7
2022-08-28T05:52:50.058Z,17.7
2022-08-28T05:54:50.126Z,17.7
2022-08-28T05:56:50.477Z,17.7
2022-08-28T05:58:50.464Z,17.8
2022-08-28T06:00:50.279Z,17.8
2022-08-28T06:02:51.057Z,17.8
2022-08-28T06:04:49.940Z,17.8
2022-08-28T06:06:50.483Z,17.9
2022-08-28T06:08:59.615Z,17.9
2022-08-28T06:10:51.426Z,17.9
2022-08-28T06:12:50.452Z,17.9
2022-08-28T06:14:50.593Z,18.0
2022-08-28T06:16:50.100Z,18.0
2022-08-28T06:18:50.823Z,18.0
2022-08-28T06:20:50.077Z,18.1
2022-08-28T06:22:50.619Z,18.1
2022-08-28T06:24:50.534Z,18.1
2022-08-28T06:26:50.723Z,18.2
2022-08-28T06:28:50.613Z,18.2
2022-08-28T06:31:24.160Z,18.3
2022-08-28T06:32:52.706Z,18.3
2022-08-28T06:34:49.981Z,18.4
2022-08-28T06:36:54.797Z,18.4
2022-08-28T06:38:49.944Z,18.4
2022-08-28T06:40:50.805Z,18.5
2022-08-28T06:42:50.009Z,18.6
2022-08-28T06:44:49.979Z,18.6
2022-08-28T06:46:50.178Z,18.6
2022-08-28T06:48:50.068Z,18.6
2022-08-28T06:50:49.996Z,18.7
2022-08-28T06:52:49.925Z,18.8
2022-08-28T06:54:56.358Z,18.8
2022-08-28T06:56:50.716Z,18.8
2022-08-28T06:58:52.243Z,18.8
2022-08-28T07:01:03.637Z,18.9
2022-08-28T07:02:50.788Z,18.9
2022-08-28T07:04:50.473Z,18.9
2022-08-28T07:06:55.192Z,18.9
2022-08-28T07:08:50.870Z,18.9
2022-08-28T07:10:50.799Z,19.0
2022-08-28T07:12:50.700Z,19.0
2022-08-28T07:14:50.727Z,19.0
2022-08-28T07:16:52.300Z,19.0
2022-08-28T07:18:50.249Z,19.0
2022-08-28T07:20:50.172Z,19.1
2022-08-28T07:23:00.022Z,19.0
2022-08-28T07:24:50.030Z,19.0
2022-08-28T07:26:50.483Z,19.1
2022-08-28T07:28:50.483Z,19.1
2022-08-28T07:30:50.483Z,19.1
2022-08-28T07:32:50.490Z,19.1
2022-08-28T07:34:50.908Z,19.1
2022-08-28T07:36:50.144Z,19.1
2022-08-28T07:38:54.041Z,19.1
2022-08-28T07:40:50.199Z,19.2
2022-08-28T07:42:50.019Z,19.1
2022-08-28T07:44:50.793Z,19.1
2022-08-28T07:46:50.155Z,19.2
2022-08-28T07:48:50.089Z,19.2
2022-08-28T07:50:50.006Z,19.2
2022-08-28T07:52:50.746Z,19.2
2022-08-28T07:54:50.737Z,19.3
2022-08-28T07:56:50.120Z,19.3
2022-08-28T07:58:50.075Z,19.3
2022-08-28T08:00:50.133Z,19.3
2022-08-28T08:02:50.833Z,19.4
2022-08-28T08:04:50.097Z,19.4
2022-08-28T08:06:58.537Z,19.4
2022-08-28T08:08:50.670Z,19.4
2022-08-28T08:10:53.891Z,19.4
2022-08-28T08:12:53.731Z,19.4
2022-08-28T08:14:50.453Z,19.4
2022-08-28T08:16:50.590Z,19.4
2022-08-28T08:18:50.465Z,19.4
2022-08-28T08:20:50.486Z,19.4
2022-08-28T08:22:50.467Z,19.4
2022-08-28T08:24:50.724Z,19.5
2022-08-28T08:27:01.319Z,19.5
2022-08-28T08:28:50.338Z,19.6
2022-08-28T08:30:50.655Z,19.7
2022-08-28T08:32:50.840Z,19.7
2022-08-28T08:34:50.435Z,19.8
2022-08-28T08:36:50.750Z,19.9
2022-08-28T08:39:00.929Z,20.1
2022-08-28T08:40:50.898Z,20.1
2022-08-28T08:42:50.064Z,20.2
2022-08-28T08:44:50.062Z,20.4
2022-08-28T08:46:50.323Z,20.4
2022-08-28T08:48:50.240Z,20.5
2022-08-28T08:50:50.262Z,20.6
2022-08-28T08:52:50.789Z,20.6
2022-08-28T08:54:50.174Z,20.6
2022-08-28T08:56:50.564Z,20.7
2022-08-28T08:58:50.449Z,20.7
2022-08-28T09:00:50.359Z,20.7
2022-08-28T09:02:50.266Z,20.8
2022-08-28T09:04:50.580Z,20.9
2022-08-28T09:06:50.597Z,20.9
2022-08-28T09:08:50.745Z,20.9
2022-08-28T09:10:50.211Z,21.0
2022-08-28T09:12:50.087Z,21.0
2022-08-28T09:14:50.168Z,21.1
2022-08-28T09:16:50.679Z,21.1
2022-08-28T09:18:53.742Z,21.2
2022-08-28T09:20:50.653Z,21.2
2022-08-28T09:22:50.835Z,21.2
2022-08-28T09:24:52.737Z,21.3
2022-08-28T09:26:50.877Z,21.4
2022-08-28T09:28:51.661Z,21.4
2022-08-28T09:30:50.806Z,21.5
2022-08-28T09:32:50.729Z,21.5
2022-08-28T09:34:50.344Z,21.5
2022-08-28T09:36:50.507Z,21.6
2022-08-28T09:38:50.505Z,21.6
2022-08-28T09:40:50.433Z,21.6
2022-08-28T09:42:50.488Z,21.6
2022-08-28T09:44:52.453Z,21.7
2022-08-28T09:46:50.413Z,21.7
2022-08-28T09:48:50.788Z,21.7
2022-08-28T09:50:50.870Z,21.8
2022-08-28T09:52:49.965Z,21.8
2022-08-28T09:54:49.920Z,21.9
2022-08-28T09:56:49.988Z,21.9
2022-08-28T09:58:50.933Z,22.0
2022-08-28T10:00:50.072Z,22.1
2022-08-28T10:02:49.988Z,22.1
2022-08-28T10:04:50.510Z,22.0
2022-08-28T10:06:50.386Z,22.1
2022-08-28T10:08:50.345Z,22.1
2022-08-28T10:10:50.117Z,22.1
2022-08-28T10:12:50.161Z,22.2
2022-08-28T10:14:50.214Z,22.2
2022-08-28T10:16:50.509Z,22.2
2022-08-28T10:18:50.167Z,22.3
2022-08-28T10:20:50.549Z,22.2
2022-08-28T10:22:50.201Z,22.2
2022-08-28T10:24:50.475Z,22.2
2022-08-28T10:26:50.881Z,22.2
2022-08-28T10:28:50.238Z,22.2
2022-08-28T10:30:50.957Z,22.3
2022-08-28T10:32:50.104Z,22.4
2022-08-28T10:34:50.748Z,22.4
2022-08-28T10:36:49.977Z,22.7
2022-08-28T10:38:53.669Z,22.8
2022-08-28T10:40:50.676Z,22.8
2022-08-28T10:42:50.570Z,22.8
2022-08-28T10:44:50.685Z,22.8
2022-08-28T10:46:50.278Z,22.9
2022-08-28T10:48:50.510Z,22.9
2022-08-28T10:50:50.395Z,23.0
2022-08-28T10:52:50.492Z,23.0
2022-08-28T10:54:50.080Z,23.0
2022-08-28T10:56:57.158Z,23.0
2022-08-28T10:58:50.562Z,23.0
2022-08-28T11:00:50.838Z,23.0
2022-08-28T11:02:51.206Z,23.0
2022-08-28T11:04:50.093Z,23.0
2022-08-28T11:06:50.269Z,23.0
2022-08-28T11:08:50.409Z,23.0
2022-08-28T11:10:50.409Z,23.0
2022-08-28T11:12:50.068Z,23.0
2022-08-28T11:14:50.875Z,23.0
2022-08-28T11:16:51.909Z,23.2
2022-08-28T11:18:50.796Z,23.3
2022-08-28T11:20:50.755Z,23.4
2022-08-28T11:22:51.184Z,23.4
2022-08-28T11:24:50.890Z,23.4
2022-08-28T11:26:50.463Z,23.4
2022-08-28T11:28:50.729Z,23.4
2022-08-28T11:30:50.715Z,23.4
2022-08-28T11:32:49.925Z,23.4
2022-08-28T11:34:50.468Z,23.4
2022-08-28T11:36:50.506Z,23.4
2022-08-28T11:38:50.355Z,23.4
2022-08-28T11:40:54.840Z,23.4
2022-08-28T11:42:49.978Z,23.4
2022-08-28T11:44:50.588Z,23.5
2022-08-28T11:46:50.037Z,23.5
2022-08-28T11:48:50.860Z,23.6
2022-08-28T11:50:50.825Z,23.6
2022-08-28T11:52:49.993Z,23.6
2022-08-28T11:54:50.748Z,23.6
2022-08-28T11:56:50.517Z,23.6
2022-08-28T11:58:50.752Z,23.6
2022-08-28T12:00:50.855Z,23.6
2022-08-28T12:02:50.457Z,23.6
2022-08-28T12:04:50.637Z,23.6
2022-08-28T12:06:50.376Z,23.7
2022-08-28T12:08:50.267Z,23.7
2022-08-28T12:10:50.296Z,23.6
2022-08-28T12:12:50.170Z,23.5
2022-08-28T12:14:50.579Z,23.6
2022-08-28T12:16:49.970Z,23.6
2022-08-28T12:18:50.037Z,23.6
2022-08-28T12:20:50.905Z,23.6
2022-08-28T12:22:50.011Z,23.6
2022-08-28T12:24:50.582Z,23.7
2022-08-28T12:26:50.838Z,23.8
2022-08-28T12:28:50.858Z,23.8
2022-08-28T12:30:50.919Z,23.8
2022-08-28T12:32:49.970Z,23.8
2022-08-28T12:34:50.770Z,23.9
2022-08-28T12:36:52.536Z,23.9
2022-08-28T12:38:50.471Z,23.9
2022-08-28T12:40:50.341Z,24.0
2022-08-28T12:42:56.177Z,24.0
2022-08-28T12:44:50.190Z,24.0
2022-08-28T12:46:49.968Z,24.1
2022-08-28T12:48:49.945Z,24.1
2022-08-28T12:50:50.034Z,24.1
2022-08-28T12:52:50.855Z,24.1
2022-08-28T12:54:50.758Z,24.2
2022-08-28T12:56:50.065Z,24.1
2022-08-28T12:58:50.859Z,24.1
2022-08-28T13:00:51.239Z,24.1
2022-08-28T13:02:51.562Z,24.1
2022-08-28T13:04:50.158Z,24.1
2022-08-28T13:06:50.504Z,24.1
2022-08-28T13:08:50.493Z,24.2
2022-08-28T13:10:50.255Z,24.2
2022-08-28T13:13:05.727Z,24.2
2022-08-28T13:14:50.086Z,24.3
2022-08-28T13:16:50.728Z,24.3
2022-08-28T13:18:50.483Z,24.4
2022-08-28T13:20:50.621Z,24.4
2022-08-28T13:22:51.414Z,24.5
2022-08-28T13:24:50.630Z,24.5
2022-08-28T13:26:49.935Z,24.5
2022-08-28T13:28:53.196Z,24.5
2022-08-28T13:30:50.560Z,24.6
2022-08-28T13:32:50.555Z,24.6
2022-08-28T13:34:49.964Z,24.6
2022-08-28T13:36:50.216Z,24.7
2022-08-28T13:38:50.020Z,24.8
2022-08-28T13:41:00.584Z,25.0
2022-08-28T13:42:50.664Z,25.0
2022-08-28T13:44:50.627Z,25.0
2022-08-28T13:46:54.181Z,25.2
2022-08-28T13:48:50.013Z,25.2
2022-08-28T13:50:51.698Z,25.2
2022-08-28T13:52:50.977Z,25.1
2022-08-28T13:54:50.506Z,25.1
2022-08-28T13:56:50.735Z,25.0
2022-08-28T13:58:58.466Z,24.9
2022-08-28T14:00:50.795Z,24.8
2022-08-28T14:02:50.300Z,24.8
2022-08-28T14:04:50.960Z,24.8
2022-08-28T14:06:50.100Z,24.6
2022-08-28T14:08:49.922Z,24.5
2022-08-28T14:10:50.835Z,24.4
2022-08-28T14:12:50.633Z,24.3
2022-08-28T14:14:50.705Z,24.3
2022-08-28T14:16:50.158Z,24.2
2022-08-28T14:18:50.214Z,24.2
2022-08-28T14:20:50.041Z,24.0
2022-08-28T14:22:50.149Z,24.0
2022-08-28T14:24:50.931Z,24.0
2022-08-28T14:26:50.218Z,24.0
2022-08-28T14:28:49.989Z,23.9
2022-08-28T14:30:49.951Z,23.9
2022-08-28T14:32:50.834Z,23.9
2022-08-28T14:34:50.162Z,23.8
2022-08-28T14:36:50.328Z,23.8
2022-08-28T14:38:54.767Z,23.8
2022-08-28T14:40:55.142Z,23.8
2022-08-28T14:42:50.047Z,23.8
2022-08-28T14:44:50.093Z,23.8
2022-08-28T14:46:50.260Z,23.7
2022-08-28T14:48:50.194Z,23.7
2022-08-28T14:50:50.141Z,23.7
2022-08-28T14:52:51.129Z,23.7
2022-08-28T14:54:50.169Z,23.8
2022-08-28T14:56:50.250Z,23.7
2022-08-28T14:58:50.055Z,23.7
2022-08-28T15:00:51.203Z,23.7
2022-08-28T15:03:00.229Z,23.7
2022-08-28T15:04:50.485Z,23.7
2022-08-28T15:06:50.512Z,23.7
2022-08-28T15:08:50.375Z,23.7
2022-08-28T15:10:50.198Z,23.8
2022-08-28T15:12:51.991Z,23.8
2022-08-28T15:14:57.739Z,23.8
2022-08-28T15:16:50.377Z,23.8
2022-08-28T15:18:50.379Z,23.8
2022-08-28T15:20:50.479Z,23.8
2022-08-28T15:22:50.313Z,23.8
2022-08-28T15:24:50.277Z,23.8
2022-08-28T15:26:50.520Z,23.8
2022-08-28T15:28:50.674Z,23.8
2022-08-28T15:30:50.700Z,23.8
2022-08-28T15:32:50.623Z,23.8
2022-08-28T15:34:50.044Z,23.9
2022-08-28T15:36:56.415Z,23.9
2022-08-28T15:38:50.306Z,24.0
2022-08-28T15:40:50.277Z,24.0
2022-08-28T15:42:50.387Z,23.9
2022-08-28T15:44:50.356Z,23.9
2022-08-28T15:46:50.538Z,23.9
2022-08-28T15:48:57.557Z,23.9
2022-08-28T15:50:52.931Z,23.9
2022-08-28T15:52:54.453Z,23.9
2022-08-28T15:54:50.419Z,23.9
2022-08-28T15:56:54.902Z,23.8
2022-08-28T15:58:50.873Z,23.8
2022-08-28T16:00:51.203Z,23.8
2022-08-28T16:02:50.379Z,23.8
2022-08-28T16:04:50.713Z,23.8
2022-08-28T16:07:01.195Z,23.8
2022-08-28T16:08:50.073Z,23.8
2022-08-28T16:10:49.927Z,23.8
2022-08-28T16:12:58.080Z,23.8
2022-08-28T16:14:49.928Z,23.8
2022-08-28T16:16:53.171Z,23.8
2022-08-28T16:18:50.123Z,23.7
2022-08-28T16:20:50.014Z,23.7
2022-08-28T16:22:50.712Z,23.7
2022-08-28T16:24:50.557Z,23.7
2022-08-28T16:26:50.873Z,23.7
2022-08-28T16:28:49.994Z,23.6
2022-08-28T16:30:50.084Z,23.6
2022-08-28T16:32:50.104Z,23.6
2022-08-28T16:34:50.843Z,23.6
2022-08-28T16:36:50.109Z,23.6
2022-08-28T16:39:04.410Z,23.5
2022-08-28T16:40:50.263Z,23.5
2022-08-28T16:42:52.522Z,23.5
2022-08-28T16:44:50.620Z,23.5
2022-08-28T16:46:50.974Z,23.5
2022-08-28T16:48:50.195Z,23.4
2022-08-28T16:50:50.095Z,23.4
2022-08-28T16:52:50.205Z,23.4
2022-08-28T16:54:49.980Z,23.4
2022-08-28T16:56:50.054Z,23.4
2022-08-28T16:58:53.717Z,23.4
2022-08-28T17:00:56.812Z,23.4
2022-08-28T17:02:50.755Z,23.3
2022-08-28T17:04:50.187Z,23.3
2022-08-28T17:06:50.559Z,23.2
2022-08-28T17:08:57.551Z,23.2
2022-08-28T17:10:50.418Z,23.2
2022-08-28T17:12:50.449Z,23.2
2022-08-28T17:14:50.276Z,23.2
2022-08-28T17:16:50.493Z,23.1
2022-08-28T17:18:53.272Z,23.1
2022-08-28T17:20:50.304Z,23.0
2022-08-28T17:22:50.126Z,23.0
2022-08-28T17:24:53.198Z,23.0
2022-08-28T17:26:50.588Z,23.0
2022-08-28T17:28:50.488Z,23.0
2022-08-28T17:30:50.430Z,23.0
2022-08-28T17:32:50.417Z,22.9
2022-08-28T17:34:50.770Z,22.9
2022-08-28T17:36:53.176Z,22.9
2022-08-28T17:38:50.106Z,22.8
2022-08-28T17:40:50.044Z,22.8
2022-08-28T17:42:50.852Z,22.8
2022-08-28T17:44:50.789Z,22.8
2022-08-28T17:46:50.374Z,22.8
2022-08-28T17:48:56.739Z,22.8
2022-08-28T17:50:50.637Z,22.7
2022-08-28T17:52:52.053Z,22.7
2022-08-28T17:54:49.950Z,22.6
2022-08-28T17:56:50.285Z,22.6
2022-08-28T17:58:50.309Z,22.6
2022-08-28T18:00:50.173Z,22.6
2022-08-28T18:02:50.086Z,22.5
2022-08-28T18:04:50.786Z,22.4
2022-08-28T18:06:50.210Z,22.4
2022-08-28T18:08:50.251Z,22.4
2022-08-28T18:10:50.054Z,22.3
2022-08-28T18:12:50.187Z,22.2
2022-08-28T18:14:50.054Z,22.2
2022-08-28T18:16:50.799Z,22.2
2022-08-28T18:18:50.868Z,22.1
2022-08-28T18:20:53.954Z,22.1
2022-08-28T18:22:50.900Z,22.0
2022-08-28T18:24:50.035Z,21.9
2022-08-28T18:26:50.235Z,21.8
2022-08-28T18:28:50.205Z,21.8
2022-08-28T18:30:50.293Z,21.8
2022-08-28T18:32:50.410Z,21.6
2022-08-28T18:34:50.025Z,21.5
2022-08-28T18:36:50.413Z,21.5
2022-08-28T18:38:50.403Z,21.4
2022-08-28T18:40:50.201Z,21.4
2022-08-28T18:42:53.183Z,21.3
2022-08-28T18:44:50.134Z,21.2
2022-08-28T18:46:50.686Z,21.2
2022-08-28T18:48:50.570Z,21.2
2022-08-28T18:50:50.500Z,21.0
2022-08-28T18:52:50.178Z,21.0
2022-08-28T18:54:51.218Z,20.9
2022-08-28T18:56:50.893Z,20.8
2022-08-28T18:58:50.091Z,20.8
2022-08-28T19:00:50.083Z,20.7
2022-08-28T19:02:50.881Z,20.6
2022-08-28T19:04:50.505Z,20.6
2022-08-28T19:06:50.912Z,20.6
2022-08-28T19:08:50.692Z,20.4
2022-08-28T19:10:50.858Z,20.3
2022-08-28T19:12:51.176Z,20.3
2022-08-28T19:14:50.416Z,20.2
2022-08-28T19:16:50.485Z,20.2
2022-08-28T19:18:53.469Z,20.1
2022-08-28T19:20:50.853Z,20.0
2022-08-28T19:22:50.046Z,19.9
2022-08-28T19:24:50.051Z,19.8
2022-08-28T19:26:50.402Z,19.8
2022-08-28T19:28:50.332Z,19.8
2022-08-28T19:30:50.307Z,19.6
2022-08-28T19:32:50.935Z,19.6
2022-08-28T19:34:50.459Z,19.6
2022-08-28T19:36:50.619Z,19.5
2022-08-28T19:38:50.531Z,19.4
2022-08-28T19:40:50.641Z,19.4
2022-08-28T19:42:50.671Z,19.3
2022-08-28T19:45:00.427Z,19.3
2022-08-28T19:46:50.587Z,19.2
2022-08-28T19:48:50.883Z,19.2
2022-08-28T19:50:50.772Z,19.1
2022-08-28T19:52:50.863Z,19.1
2022-08-28T19:54:50.531Z,19.0
2022-08-28T19:56:50.569Z,18.9
2022-08-28T19:58:50.456Z,18.9
2022-08-28T20:00:50.487Z,18.8
2022-08-28T20:02:50.584Z,18.8
2022-08-28T20:04:50.040Z,18.8
2022-08-28T20:06:50.167Z,18.7
2022-08-28T20:08:50.098Z,18.6
2022-08-28T20:10:50.269Z,18.6
2022-08-28T20:12:50.119Z,18.5
2022-08-28T20:14:49.998Z,18.5
2022-08-28T20:16:50.089Z,18.4
2022-08-28T20:18:49.956Z,18.4
2022-08-28T20:20:50.713Z,18.4
2022-08-28T20:22:56.436Z,18.4
2022-08-28T20:24:50.898Z,18.3
2022-08-28T20:26:50.041Z,18.3
2022-08-28T20:28:50.248Z,18.2
2022-08-28T20:30:50.734Z,18.2
2022-08-28T20:32:51.197Z,18.2
2022-08-28T20:34:50.008Z,18.2
2022-08-28T20:36:50.078Z,18.1
2022-08-28T20:38:50.135Z,18.0
2022-08-28T20:40:50.897Z,18.0
2022-08-28T20:42:50.043Z,18.0
2022-08-28T20:44:51.830Z,18.0
2022-08-28T20:46:54.891Z,18.0
2022-08-28T20:48:50.803Z,18.0
2022-08-28T20:50:56.104Z,17.9
2022-08-28T20:52:50.060Z,17.9
2022-08-28T20:54:50.115Z,17.8
2022-08-28T20:56:50.279Z,17.8
2022-08-28T20:58:50.362Z,17.8
2022-08-28T21:01:00.078Z,17.8
2022-08-28T21:02:50.145Z,17.8
2022-08-28T21:04:50.861Z,17.8
2022-08-28T21:06:50.106Z,17.8
2022-08-28T21:08:50.020Z,17.8
2022-08-28T21:10:50.867Z,17.8
2022-08-28T21:12:50.028Z,17.8
2022-08-28T21:14:52.134Z,17.8
2022-08-28T21:16:50.495Z,17.8
2022-08-28T21:19:16.870Z,17.8
2022-08-28T21:20:50.456Z,17.8
2022-08-28T21:22:50.363Z,17.8
2022-08-28T21:24:50.306Z,17.8
2022-08-28T21:26:51.503Z,17.8
2022-08-28T21:28:50.321Z,17.7
2022-08-28T21:30:50.507Z,17.7
2022-08-28T21:32:53.174Z,17.8
2022-08-28T21:34:50.697Z,17.8
2022-08-28T21:36:51.056Z,17.8
2022-08-28T21:38:50.910Z,17.8
2022-08-28T21:40:50.916Z,17.8
2022-08-28T21:42:50.839Z,17.7
2022-08-28T21:44:52.576Z,17.7
2022-08-28T21:46:50.639Z,17.7
2022-08-28T21:48:50.701Z,17.7
2022-08-28T21:50:54.144Z,17.7
2022-08-28T21:52:50.473Z,17.7
2022-08-28T21:54:50.373Z,17.7
2022-08-28T21:56:59.275Z,17.7
2022-08-28T21:58:50.094Z,17.7
2022-08-28T22:00:50.470Z,17.6
2022-08-28T22:02:50.601Z,17.6
2022-08-28T22:04:50.321Z,17.6
2022-08-28T22:06:50.553Z,17.6
2022-08-28T22:08:50.465Z,17.6
2022-08-28T22:10:50.552Z,17.6
2022-08-28T22:12:50.436Z,17.6
2022-08-28T22:14:50.249Z,17.6
2022-08-28T22:16:50.670Z,17.6
2022-08-28T22:18:49.924Z,17.5
2022-08-28T22:20:50.738Z,17.5
2022-08-28T22:22:50.237Z,17.4
2022-08-28T22:24:50.169Z,17.4
2022-08-28T22:26:58.138Z,17.4
2022-08-28T22:28:49.986Z,17.4
2022-08-28T22:30:49.925Z,17.3
2022-08-28T22:32:50.774Z,17.3
2022-08-28T22:34:50.231Z,17.3
2022-08-28T22:36:50.556Z,17.2
2022-08-28T22:38:53.916Z,17.2
2022-08-28T22:40:50.175Z,17.1
2022-08-28T22:42:50.057Z,17.1
2022-08-28T22:44:50.297Z,17.1
2022-08-28T22:46:50.383Z,17.0
2022-08-28T22:48:50.409Z,17.0
2022-08-28T22:50:50.327Z,16.9
2022-08-28T22:52:50.731Z,16.9
2022-08-28T22:54:53.664Z,16.9
2022-08-28T22:56:50.890Z,16.8
2022-08-28T22:58:50.700Z,16.8
2022-08-28T23:00:50.780Z,16.8
2022-08-28T23:02:51.098Z,16.7
2022-08-28T23:04:52.739Z,16.7
2022-08-28T23:06:50.592Z,16.6
2022-08-28T23:08:50.642Z,16.6
2022-08-28T23:10:59.921Z,16.5
2022-08-28T23:12:49.996Z,16.5
2022-08-28T23:14:50.836Z,16.5
2022-08-28T23:16:51.554Z,16.5
2022-08-28T23:19:13.787Z,16.4
2022-08-28T23:20:52.023Z,16.4
2022-08-28T23:22:50.211Z,16.4
2022-08-28T23:24:50.265Z,16.4
2022-08-28T23:26:50.772Z,16.4
2022-08-28T23:28:50.720Z,16.3
2022-08-28T23:30:50.577Z,16.3
2022-08-28T23:32:50.583Z,16.3
2022-08-28T23:34:51.103Z,16.3
2022-08-28T23:36:51.273Z,16.3
2022-08-28T23:38:52.639Z,16.3
2022-08-28T23:40:51.110Z,16.3
2022-08-28T23:42:50.096Z,16.3
2022-08-28T23:44:50.037Z,16.2
2022-08-28T23:46:50.527Z,16.2
2022-08-28T23:48:51.684Z,16.2
2022-08-28T23:50:50.855Z,16.2
2022-08-28T23:52:50.777Z,16.2
2022-08-28T23:54:50.735Z,16.2
2022-08-28T23:56:51.386Z,16.2
2022-08-28T23:58:56.091Z,16.2
